sensor_id;sensor_type;location;lat;lon;timestamp;temperature;humidity
14119;DHT22;7138;49.246;9.100;2022-11-20T00:02:03;2.00;99.90
14119;DHT22;7138;49.246;9.100;2022-11-20T00:04:28;1.90;99.90
14119;DHT22;7138;49.246;9.100;2022-11-20T00:06:54;1.90;99.90
14119;DHT22;7138;49.246;9.100;2022-11-20T00:09:20;1.90;99.90
14119;DHT22;7138;49.246;9.100;2022-11-20T00:11:46;2.00;99.90
14119;DHT22;7138;49.246;9.100;2022-11-20T00:14:12;2.00;99.90
14119;DHT22;7138;49.246;9.100;2022-11-20T00:16:39;2.00;99.90
14119;DHT22;7138;49.246;9.100;2022-11-20T00:19:05;2.10;99.90
14119;DHT22;7138;49.246;9.100;2022-11-20T00:21:31;2.00;99.90
14119;DHT22;7138;49.246;9.100;2022-11-20T00:23:57;2.00;99.90
14119;DHT22;7138;49.246;9.100;2022-11-20T00:26:25;2.00;99.90
14119;DHT22;7138;49.246;9.100;2022-11-20T00:28:53;2.00;99.90
14119;DHT22;7138;49.246;9.100;2022-11-20T00:31:20;1.90;99.90
14119;DHT22;7138;49.246;9.100;2022-11-20T00:33:49;1.90;99.90
14119;DHT22;7138;49.246;9.100;2022-11-20T00:36:16;2.00;99.90
14119;DHT22;7138;49.246;9.100;2022-11-20T00:38:44;2.00;99.90
14119;DHT22;7138;49.246;9.100;2022-11-20T00:41:12;2.00;99.90
14119;DHT22;7138;49.246;9.100;2022-11-20T00:43:39;2.10;99.90
14119;DHT22;7138;49.246;9.100;2022-11-20T00:46:07;2.10;99.90
14119;DHT22;7138;49.246;9.100;2022-11-20T00:48:35;2.00;99.90
14119;DHT22;7138;49.246;9.100;2022-11-20T00:51:02;2.00;99.90
14119;DHT22;7138;49.246;9.100;2022-11-20T00:53:28;2.00;99.90
14119;DHT22;7138;49.246;9.100;2022-11-20T00:55:55;2.00;99.90
14119;DHT22;7138;49.246;9.100;2022-11-20T00:58:22;2.10;99.90
14119;DHT22;7138;49.246;9.100;2022-11-20T01:00:49;2.20;99.90
14119;DHT22;7138;49.246;9.100;2022-11-20T01:03:15;2.00;99.90
14119;DHT22;7138;49.246;9.100;2022-11-20T01:05:41;2.00;99.90
14119;DHT22;7138;49.246;9.100;2022-11-20T01:08:11;2.10;99.90
14119;DHT22;7138;49.246;9.100;2022-11-20T01:10:37;2.00;99.90
14119;DHT22;7138;49.246;9.100;2022-11-20T01:13:03;2.00;99.90
14119;DHT22;7138;49.246;9.100;2022-11-20T01:15:47;2.00;99.90
14119;DHT22;7138;49.246;9.100;2022-11-20T01:18:13;2.10;99.90
14119;DHT22;7138;49.246;9.100;2022-11-20T01:20:39;2.10;99.90
14119;DHT22;7138;49.246;9.100;2022-11-20T01:23:05;2.20;99.90
14119;DHT22;7138;49.246;9.100;2022-11-20T01:25:34;2.10;99.90
14119;DHT22;7138;49.246;9.100;2022-11-20T01:28:00;2.20;99.90
14119;DHT22;7138;49.246;9.100;2022-11-20T01:30:25;2.20;99.90
14119;DHT22;7138;49.246;9.100;2022-11-20T01:32:51;2.20;99.90
14119;DHT22;7138;49.246;9.100;2022-11-20T01:35:17;2.10;99.90
14119;DHT22;7138;49.246;9.100;2022-11-20T01:37:43;2.20;99.90
14119;DHT22;7138;49.246;9.100;2022-11-20T01:40:10;2.30;99.90
14119;DHT22;7138;49.246;9.100;2022-11-20T01:42:38;2.20;99.90
14119;DHT22;7138;49.246;9.100;2022-11-20T01:45:46;2.30;99.90
14119;DHT22;7138;49.246;9.100;2022-11-20T01:48:23;2.20;99.90
14119;DHT22;7138;49.246;9.100;2022-11-20T01:50:53;2.30;99.90
14119;DHT22;7138;49.246;9.100;2022-11-20T01:53:23;2.30;99.90
14119;DHT22;7138;49.246;9.100;2022-11-20T01:55:54;2.30;99.90
14119;DHT22;7138;49.246;9.100;2022-11-20T01:58:27;2.30;99.90
14119;DHT22;7138;49.246;9.100;2022-11-20T02:00:57;2.20;99.90
14119;DHT22;7138;49.246;9.100;2022-11-20T02:03:24;2.30;99.90
14119;DHT22;7138;49.246;9.100;2022-11-20T02:05:54;2.30;99.90
14119;DHT22;7138;49.246;9.100;2022-11-20T02:08:24;2.30;99.90
14119;DHT22;7138;49.246;9.100;2022-11-20T02:10:50;2.30;99.90
14119;DHT22;7138;49.246;9.100;2022-11-20T02:13:16;2.30;99.90
14119;DHT22;7138;49.246;9.100;2022-11-20T02:16:03;2.40;99.90
14119;DHT22;7138;49.246;9.100;2022-11-20T02:18:33;2.30;99.90
14119;DHT22;7138;49.246;9.100;2022-11-20T02:21:05;2.30;99.90
14119;DHT22;7138;49.246;9.100;2022-11-20T02:23:38;2.30;99.90
14119;DHT22;7138;49.246;9.100;2022-11-20T02:26:12;2.30;99.90
14119;DHT22;7138;49.246;9.100;2022-11-20T02:28:41;2.30;99.90
14119;DHT22;7138;49.246;9.100;2022-11-20T02:31:07;2.30;99.90
14119;DHT22;7138;49.246;9.100;2022-11-20T02:33:33;2.30;99.90
14119;DHT22;7138;49.246;9.100;2022-11-20T02:35:59;2.30;99.90
14119;DHT22;7138;49.246;9.100;2022-11-20T02:38:25;2.20;99.90
14119;DHT22;7138;49.246;9.100;2022-11-20T02:40:51;2.30;99.90
14119;DHT22;7138;49.246;9.100;2022-11-20T02:43:18;2.40;99.90
14119;DHT22;7138;49.246;9.100;2022-11-20T02:45:44;2.40;99.90
14119;DHT22;7138;49.246;9.100;2022-11-20T02:48:10;2.40;99.90
14119;DHT22;7138;49.246;9.100;2022-11-20T02:50:39;2.50;99.90
14119;DHT22;7138;49.246;9.100;2022-11-20T02:53:06;2.50;99.90
14119;DHT22;7138;49.246;9.100;2022-11-20T02:55:32;2.50;99.90
14119;DHT22;7138;49.246;9.100;2022-11-20T02:57:58;2.60;99.90
14119;DHT22;7138;49.246;9.100;2022-11-20T03:00:25;2.60;99.90
14119;DHT22;7138;49.246;9.100;2022-11-20T03:02:51;2.60;99.90
14119;DHT22;7138;49.246;9.100;2022-11-20T03:05:17;2.60;99.90
14119;DHT22;7138;49.246;9.100;2022-11-20T03:07:44;2.60;99.90
14119;DHT22;7138;49.246;9.100;2022-11-20T03:10:10;2.70;99.90
14119;DHT22;7138;49.246;9.100;2022-11-20T03:12:36;2.70;99.90
14119;DHT22;7138;49.246;9.100;2022-11-20T03:15:03;2.70;99.90
14119;DHT22;7138;49.246;9.100;2022-11-20T03:17:31;2.80;99.90
14119;DHT22;7138;49.246;9.100;2022-11-20T03:19:57;2.80;99.90
14119;DHT22;7138;49.246;9.100;2022-11-20T03:22:23;2.80;99.90
14119;DHT22;7138;49.246;9.100;2022-11-20T03:24:48;2.80;99.90
14119;DHT22;7138;49.246;9.100;2022-11-20T03:27:14;2.80;99.90
14119;DHT22;7138;49.246;9.100;2022-11-20T03:29:40;2.80;99.90
14119;DHT22;7138;49.246;9.100;2022-11-20T03:32:07;2.90;99.90
14119;DHT22;7138;49.246;9.100;2022-11-20T03:34:34;2.90;99.90
14119;DHT22;7138;49.246;9.100;2022-11-20T03:37:00;2.90;99.90
14119;DHT22;7138;49.246;9.100;2022-11-20T03:39:26;2.80;99.90
14119;DHT22;7138;49.246;9.100;2022-11-20T03:41:52;2.90;99.90
14119;DHT22;7138;49.246;9.100;2022-11-20T03:44:21;2.90;99.90
14119;DHT22;7138;49.246;9.100;2022-11-20T03:46:47;2.90;99.90
14119;DHT22;7138;49.246;9.100;2022-11-20T03:49:13;3.00;99.90
14119;DHT22;7138;49.246;9.100;2022-11-20T03:51:40;3.00;99.90
14119;DHT22;7138;49.246;9.100;2022-11-20T03:54:07;3.00;99.90
14119;DHT22;7138;49.246;9.100;2022-11-20T03:56:36;2.90;99.90
14119;DHT22;7138;49.246;9.100;2022-11-20T03:59:03;2.90;99.90
14119;DHT22;7138;49.246;9.100;2022-11-20T04:01:31;3.00;99.90
14119;DHT22;7138;49.246;9.100;2022-11-20T04:03:58;3.00;99.90
14119;DHT22;7138;49.246;9.100;2022-11-20T04:06:26;3.00;99.90
14119;DHT22;7138;49.246;9.100;2022-11-20T04:08:56;3.00;99.90
14119;DHT22;7138;49.246;9.100;2022-11-20T04:11:24;3.10;99.90
14119;DHT22;7138;49.246;9.100;2022-11-20T04:13:52;3.00;99.90
14119;DHT22;7138;49.246;9.100;2022-11-20T04:16:23;3.00;99.90
14119;DHT22;7138;49.246;9.100;2022-11-20T04:18:52;2.90;99.90
14119;DHT22;7138;49.246;9.100;2022-11-20T04:21:18;2.90;99.90
14119;DHT22;7138;49.246;9.100;2022-11-20T04:23:44;2.90;99.90
14119;DHT22;7138;49.246;9.100;2022-11-20T04:26:12;2.90;99.90
14119;DHT22;7138;49.246;9.100;2022-11-20T04:28:38;2.90;99.90
14119;DHT22;7138;49.246;9.100;2022-11-20T04:31:06;3.00;99.90
14119;DHT22;7138;49.246;9.100;2022-11-20T04:33:34;3.00;99.90
14119;DHT22;7138;49.246;9.100;2022-11-20T04:36:02;3.00;99.90
14119;DHT22;7138;49.246;9.100;2022-11-20T04:38:34;2.90;99.90
14119;DHT22;7138;49.246;9.100;2022-11-20T04:41:02;3.00;99.90
14119;DHT22;7138;49.246;9.100;2022-11-20T04:43:31;3.00;99.90
14119;DHT22;7138;49.246;9.100;2022-11-20T04:45:59;3.00;99.90
14119;DHT22;7138;49.246;9.100;2022-11-20T04:48:26;3.00;99.90
14119;DHT22;7138;49.246;9.100;2022-11-20T04:50:54;3.00;99.90
14119;DHT22;7138;49.246;9.100;2022-11-20T04:53:21;2.90;99.90
14119;DHT22;7138;49.246;9.100;2022-11-20T04:55:48;3.00;99.90
14119;DHT22;7138;49.246;9.100;2022-11-20T04:58:14;2.90;99.90
14119;DHT22;7138;49.246;9.100;2022-11-20T05:00:42;3.00;99.90
14119;DHT22;7138;49.246;9.100;2022-11-20T05:03:08;3.10;99.90
14119;DHT22;7138;49.246;9.100;2022-11-20T05:05:35;3.20;99.90
14119;DHT22;7138;49.246;9.100;2022-11-20T05:08:01;3.20;99.90
14119;DHT22;7138;49.246;9.100;2022-11-20T05:10:27;3.40;99.90
14119;DHT22;7138;49.246;9.100;2022-11-20T05:12:53;3.40;99.90
14119;DHT22;7138;49.246;9.100;2022-11-20T05:15:19;3.40;99.90
14119;DHT22;7138;49.246;9.100;2022-11-20T05:17:48;3.40;99.90
14119;DHT22;7138;49.246;9.100;2022-11-20T05:20:14;3.50;99.90
14119;DHT22;7138;49.246;9.100;2022-11-20T05:22:40;3.50;99.90
14119;DHT22;7138;49.246;9.100;2022-11-20T05:25:07;3.50;99.90
14119;DHT22;7138;49.246;9.100;2022-11-20T05:27:33;3.50;99.90
14119;DHT22;7138;49.246;9.100;2022-11-20T05:29:59;3.60;99.90
14119;DHT22;7138;49.246;9.100;2022-11-20T05:32:24;3.70;99.90
14119;DHT22;7138;49.246;9.100;2022-11-20T05:34:52;3.80;99.90
14119;DHT22;7138;49.246;9.100;2022-11-20T05:37:18;3.90;99.90
14119;DHT22;7138;49.246;9.100;2022-11-20T05:39:44;3.90;99.90
14119;DHT22;7138;49.246;9.100;2022-11-20T05:42:10;4.00;99.90
14119;DHT22;7138;49.246;9.100;2022-11-20T05:44:54;4.10;99.90
14119;DHT22;7138;49.246;9.100;2022-11-20T05:47:20;4.20;99.90
14119;DHT22;7138;49.246;9.100;2022-11-20T05:49:46;4.20;99.90
14119;DHT22;7138;49.246;9.100;2022-11-20T05:52:13;4.30;99.90
14119;DHT22;7138;49.246;9.100;2022-11-20T05:54:39;4.30;99.90
14119;DHT22;7138;49.246;9.100;2022-11-20T05:57:05;4.30;99.90
14119;DHT22;7138;49.246;9.100;2022-11-20T05:59:31;4.30;99.90
14119;DHT22;7138;49.246;9.100;2022-11-20T06:01:56;4.40;99.90
14119;DHT22;7138;49.246;9.100;2022-11-20T06:04:22;4.40;99.90
14119;DHT22;7138;49.246;9.100;2022-11-20T06:06:48;4.40;99.90
14119;DHT22;7138;49.246;9.100;2022-11-20T06:09:16;4.40;99.90
14119;DHT22;7138;49.246;9.100;2022-11-20T06:11:41;4.50;99.90
14119;DHT22;7138;49.246;9.100;2022-11-20T06:14:07;4.50;99.90
14119;DHT22;7138;49.246;9.100;2022-11-20T06:16:33;4.50;99.90
14119;DHT22;7138;49.246;9.100;2022-11-20T06:18:59;4.60;99.90
14119;DHT22;7138;49.246;9.100;2022-11-20T06:21:25;4.60;99.90
14119;DHT22;7138;49.246;9.100;2022-11-20T06:23:52;4.60;99.90
14119;DHT22;7138;49.246;9.100;2022-11-20T06:26:22;4.60;99.90
14119;DHT22;7138;49.246;9.100;2022-11-20T06:28:50;4.60;99.90
14119;DHT22;7138;49.246;9.100;2022-11-20T06:31:18;4.60;99.90
14119;DHT22;7138;49.246;9.100;2022-11-20T06:33:45;4.70;99.90
14119;DHT22;7138;49.246;9.100;2022-11-20T06:36:14;4.70;99.90
14119;DHT22;7138;49.246;9.100;2022-11-20T06:38:41;4.70;99.90
14119;DHT22;7138;49.246;9.100;2022-11-20T06:41:11;4.70;99.90
14119;DHT22;7138;49.246;9.100;2022-11-20T06:43:39;4.80;99.90
14119;DHT22;7138;49.246;9.100;2022-11-20T06:46:05;4.80;99.90
14119;DHT22;7138;49.246;9.100;2022-11-20T06:48:32;4.70;99.90
14119;DHT22;7138;49.246;9.100;2022-11-20T06:50:58;4.80;99.90
14119;DHT22;7138;49.246;9.100;2022-11-20T06:53:24;4.80;99.90
14119;DHT22;7138;49.246;9.100;2022-11-20T06:55:51;4.80;99.90
14119;DHT22;7138;49.246;9.100;2022-11-20T06:58:18;4.90;99.90
14119;DHT22;7138;49.246;9.100;2022-11-20T07:00:46;4.90;99.90
14119;DHT22;7138;49.246;9.100;2022-11-20T07:03:12;5.00;99.90
14119;DHT22;7138;49.246;9.100;2022-11-20T07:05:38;5.00;99.90
14119;DHT22;7138;49.246;9.100;2022-11-20T07:08:05;5.10;99.90
14119;DHT22;7138;49.246;9.100;2022-11-20T07:10:31;5.10;99.90
14119;DHT22;7138;49.246;9.100;2022-11-20T07:12:57;5.20;99.90
14119;DHT22;7138;49.246;9.100;2022-11-20T07:15:25;5.20;99.90
14119;DHT22;7138;49.246;9.100;2022-11-20T07:17:52;5.20;99.90
14119;DHT22;7138;49.246;9.100;2022-11-20T07:20:18;5.30;99.90
14119;DHT22;7138;49.246;9.100;2022-11-20T07:22:44;5.30;99.90
14119;DHT22;7138;49.246;9.100;2022-11-20T07:25:10;5.40;99.90
14119;DHT22;7138;49.246;9.100;2022-11-20T07:27:36;5.40;99.90
14119;DHT22;7138;49.246;9.100;2022-11-20T07:30:03;5.40;99.90
14119;DHT22;7138;49.246;9.100;2022-11-20T07:32:29;5.40;99.90
14119;DHT22;7138;49.246;9.100;2022-11-20T07:34:57;5.40;99.90
14119;DHT22;7138;49.246;9.100;2022-11-20T07:37:22;5.50;99.90
14119;DHT22;7138;49.246;9.100;2022-11-20T07:39:48;5.50;99.90
14119;DHT22;7138;49.246;9.100;2022-11-20T07:42:14;5.50;99.90
14119;DHT22;7138;49.246;9.100;2022-11-20T07:44:40;5.50;99.90
14119;DHT22;7138;49.246;9.100;2022-11-20T07:47:06;5.50;99.90
14119;DHT22;7138;49.246;9.100;2022-11-20T07:49:32;5.60;99.90
14119;DHT22;7138;49.246;9.100;2022-11-20T07:52:00;5.60;99.90
14119;DHT22;7138;49.246;9.100;2022-11-20T07:54:25;5.60;99.90
14119;DHT22;7138;49.246;9.100;2022-11-20T07:56:51;5.60;99.90
14119;DHT22;7138;49.246;9.100;2022-11-20T07:59:17;5.70;99.90
14119;DHT22;7138;49.246;9.100;2022-11-20T08:01:43;5.70;99.90
14119;DHT22;7138;49.246;9.100;2022-11-20T08:04:09;5.70;99.90
14119;DHT22;7138;49.246;9.100;2022-11-20T08:06:35;5.70;99.90
14119;DHT22;7138;49.246;9.100;2022-11-20T08:09:03;5.70;99.90
14119;DHT22;7138;49.246;9.100;2022-11-20T08:11:29;5.80;99.90
14119;DHT22;7138;49.246;9.100;2022-11-20T08:14:13;5.80;99.90
14119;DHT22;7138;49.246;9.100;2022-11-20T08:16:40;5.80;99.90
14119;DHT22;7138;49.246;9.100;2022-11-20T08:19:07;5.80;99.90
14119;DHT22;7138;49.246;9.100;2022-11-20T08:21:33;5.80;99.90
14119;DHT22;7138;49.246;9.100;2022-11-20T08:24:00;5.90;99.90
14119;DHT22;7138;49.246;9.100;2022-11-20T08:26:27;5.90;99.90
14119;DHT22;7138;49.246;9.100;2022-11-20T08:28:53;5.90;99.90
14119;DHT22;7138;49.246;9.100;2022-11-20T08:31:20;5.90;99.90
14119;DHT22;7138;49.246;9.100;2022-11-20T08:33:46;5.90;99.90
14119;DHT22;7138;49.246;9.100;2022-11-20T08:36:12;5.90;99.90
14119;DHT22;7138;49.246;9.100;2022-11-20T08:38:38;5.90;99.90
14119;DHT22;7138;49.246;9.100;2022-11-20T08:41:05;6.00;99.90
14119;DHT22;7138;49.246;9.100;2022-11-20T08:43:51;6.00;99.90
14119;DHT22;7138;49.246;9.100;2022-11-20T08:46:19;6.10;99.90
14119;DHT22;7138;49.246;9.100;2022-11-20T08:48:45;6.20;99.90
14119;DHT22;7138;49.246;9.100;2022-11-20T08:51:12;6.30;99.90
14119;DHT22;7138;49.246;9.100;2022-11-20T08:53:38;6.20;99.90
14119;DHT22;7138;49.246;9.100;2022-11-20T08:56:05;6.20;99.90
14119;DHT22;7138;49.246;9.100;2022-11-20T08:58:32;6.30;99.90
14119;DHT22;7138;49.246;9.100;2022-11-20T09:00:59;6.30;99.90
14119;DHT22;7138;49.246;9.100;2022-11-20T09:03:25;6.30;99.90
14119;DHT22;7138;49.246;9.100;2022-11-20T09:05:57;6.40;99.90
14119;DHT22;7138;49.246;9.100;2022-11-20T09:08:24;6.40;99.90
14119;DHT22;7138;49.246;9.100;2022-11-20T09:10:51;6.50;99.90
14119;DHT22;7138;49.246;9.100;2022-11-20T09:13:17;6.40;99.90
14119;DHT22;7138;49.246;9.100;2022-11-20T09:15:43;6.50;99.90
14119;DHT22;7138;49.246;9.100;2022-11-20T09:18:13;6.50;99.90
14119;DHT22;7138;49.246;9.100;2022-11-20T09:20:39;6.50;99.90
14119;DHT22;7138;49.246;9.100;2022-11-20T09:23:05;6.40;99.90
14119;DHT22;7138;49.246;9.100;2022-11-20T09:25:31;6.40;99.90
14119;DHT22;7138;49.246;9.100;2022-11-20T09:27:57;6.40;99.90
14119;DHT22;7138;49.246;9.100;2022-11-20T09:30:24;6.50;99.90
14119;DHT22;7138;49.246;9.100;2022-11-20T09:32:50;6.40;99.90
14119;DHT22;7138;49.246;9.100;2022-11-20T09:35:18;6.40;99.90
14119;DHT22;7138;49.246;9.100;2022-11-20T09:37:44;6.40;99.90
14119;DHT22;7138;49.246;9.100;2022-11-20T09:40:18;6.40;99.90
14119;DHT22;7138;49.246;9.100;2022-11-20T09:42:50;6.40;99.90
14119;DHT22;7138;49.246;9.100;2022-11-20T09:45:30;6.50;99.90
14119;DHT22;7138;49.246;9.100;2022-11-20T09:48:18;6.50;99.90
14119;DHT22;7138;49.246;9.100;2022-11-20T09:51:03;6.50;99.90
14119;DHT22;7138;49.246;9.100;2022-11-20T09:53:42;6.50;99.90
14119;DHT22;7138;49.246;9.100;2022-11-20T09:56:19;6.50;99.90
14119;DHT22;7138;49.246;9.100;2022-11-20T09:58:49;6.60;99.90
14119;DHT22;7138;49.246;9.100;2022-11-20T10:01:18;6.60;99.90
14119;DHT22;7138;49.246;9.100;2022-11-20T10:03:53;6.60;99.90
14119;DHT22;7138;49.246;9.100;2022-11-20T10:06:29;6.60;99.90
14119;DHT22;7138;49.246;9.100;2022-11-20T10:09:05;6.60;99.90
14119;DHT22;7138;49.246;9.100;2022-11-20T10:11:50;6.70;99.90
14119;DHT22;7138;49.246;9.100;2022-11-20T10:14:29;6.70;99.90
14119;DHT22;7138;49.246;9.100;2022-11-20T10:17:12;6.80;99.90
14119;DHT22;7138;49.246;9.100;2022-11-20T10:20:00;6.80;99.90
14119;DHT22;7138;49.246;9.100;2022-11-20T10:22:51;6.80;99.90
14119;DHT22;7138;49.246;9.100;2022-11-20T10:25:33;6.90;99.90
14119;DHT22;7138;49.246;9.100;2022-11-20T10:28:27;6.90;99.90
14119;DHT22;7138;49.246;9.100;2022-11-20T10:31:08;6.90;99.90
14119;DHT22;7138;49.246;9.100;2022-11-20T10:33:40;6.80;99.90
14119;DHT22;7138;49.246;9.100;2022-11-20T10:36:13;6.80;99.90
14119;DHT22;7138;49.246;9.100;2022-11-20T10:38:45;6.80;99.90
14119;DHT22;7138;49.246;9.100;2022-11-20T10:41:20;6.80;99.90
14119;DHT22;7138;49.246;9.100;2022-11-20T10:43:57;6.80;99.90
14119;DHT22;7138;49.246;9.100;2022-11-20T10:46:34;6.80;99.90
14119;DHT22;7138;49.246;9.100;2022-11-20T10:49:11;6.80;99.90
14119;DHT22;7138;49.246;9.100;2022-11-20T10:51:52;6.80;99.90
14119;DHT22;7138;49.246;9.100;2022-11-20T10:54:36;6.90;99.90
14119;DHT22;7138;49.246;9.100;2022-11-20T10:57:14;6.90;99.90
14119;DHT22;7138;49.246;9.100;2022-11-20T11:00:03;6.80;99.90
14119;DHT22;7138;49.246;9.100;2022-11-20T11:02:42;6.90;99.90
14119;DHT22;7138;49.246;9.100;2022-11-20T11:05:22;6.90;99.90
14119;DHT22;7138;49.246;9.100;2022-11-20T11:07:58;7.00;99.90
14119;DHT22;7138;49.246;9.100;2022-11-20T11:10:30;7.00;99.90
14119;DHT22;7138;49.246;9.100;2022-11-20T11:13:01;7.00;99.90
14119;DHT22;7138;49.246;9.100;2022-11-20T11:15:29;7.00;99.90
14119;DHT22;7138;49.246;9.100;2022-11-20T11:18:02;7.00;99.90
14119;DHT22;7138;49.246;9.100;2022-11-20T11:20:28;7.00;99.90
14119;DHT22;7138;49.246;9.100;2022-11-20T11:22:55;7.00;99.90
14119;DHT22;7138;49.246;9.100;2022-11-20T11:25:29;6.90;99.90
14119;DHT22;7138;49.246;9.100;2022-11-20T11:27:58;6.90;99.90
14119;DHT22;7138;49.246;9.100;2022-11-20T11:30:27;6.90;99.90
14119;DHT22;7138;49.246;9.100;2022-11-20T11:33:06;6.80;99.90
14119;DHT22;7138;49.246;9.100;2022-11-20T11:35:44;6.80;99.90
14119;DHT22;7138;49.246;9.100;2022-11-20T11:38:15;6.80;99.90
14119;DHT22;7138;49.246;9.100;2022-11-20T11:40:46;6.90;99.90
14119;DHT22;7138;49.246;9.100;2022-11-20T11:43:21;7.40;99.90
14119;DHT22;7138;49.246;9.100;2022-11-20T11:46:23;7.70;99.90
14119;DHT22;7138;49.246;9.100;2022-11-20T11:49:01;8.10;99.90
14119;DHT22;7138;49.246;9.100;2022-11-20T11:51:41;8.20;99.90
14119;DHT22;7138;49.246;9.100;2022-11-20T11:54:21;8.50;99.90
14119;DHT22;7138;49.246;9.100;2022-11-20T11:56:51;8.40;99.90
14119;DHT22;7138;49.246;9.100;2022-11-20T11:59:25;8.40;99.90
14119;DHT22;7138;49.246;9.100;2022-11-20T12:02:02;8.40;99.90
14119;DHT22;7138;49.246;9.100;2022-11-20T12:04:42;8.40;99.90
14119;DHT22;7138;49.246;9.100;2022-11-20T12:07:15;8.30;99.90
14119;DHT22;7138;49.246;9.100;2022-11-20T12:09:57;8.50;99.90
14119;DHT22;7138;49.246;9.100;2022-11-20T12:12:29;8.60;99.90
14119;DHT22;7138;49.246;9.100;2022-11-20T12:14:58;8.40;99.90
14119;DHT22;7138;49.246;9.100;2022-11-20T12:17:24;8.30;99.90
14119;DHT22;7138;49.246;9.100;2022-11-20T12:19:50;8.10;99.90
14119;DHT22;7138;49.246;9.100;2022-11-20T12:22:28;8.10;99.90
14119;DHT22;7138;49.246;9.100;2022-11-20T12:25:08;8.10;99.90
14119;DHT22;7138;49.246;9.100;2022-11-20T12:27:51;8.10;99.90
14119;DHT22;7138;49.246;9.100;2022-11-20T12:30:50;8.20;99.90
14119;DHT22;7138;49.246;9.100;2022-11-20T12:33:51;8.30;99.90
14119;DHT22;7138;49.246;9.100;2022-11-20T12:36:35;8.50;99.90
14119;DHT22;7138;49.246;9.100;2022-11-20T12:39:13;8.70;99.90
14119;DHT22;7138;49.246;9.100;2022-11-20T12:42:00;8.90;99.90
14119;DHT22;7138;49.246;9.100;2022-11-20T12:45:27;8.70;99.90
14119;DHT22;7138;49.246;9.100;2022-11-20T12:48:29;8.40;99.90
14119;DHT22;7138;49.246;9.100;2022-11-20T12:51:26;8.30;99.90
14119;DHT22;7138;49.246;9.100;2022-11-20T12:57:26;9.10;99.90
14119;DHT22;7138;49.246;9.100;2022-11-20T13:00:09;9.20;99.90
14119;DHT22;7138;49.246;9.100;2022-11-20T13:02:55;9.10;99.90
14119;DHT22;7138;49.246;9.100;2022-11-20T13:05:38;8.70;99.90
14119;DHT22;7138;49.246;9.100;2022-11-20T13:08:17;8.50;99.90
14119;DHT22;7138;49.246;9.100;2022-11-20T13:10:49;8.30;99.90
14119;DHT22;7138;49.246;9.100;2022-11-20T13:13:25;8.20;99.90
14119;DHT22;7138;49.246;9.100;2022-11-20T13:16:02;8.10;99.90
14119;DHT22;7138;49.246;9.100;2022-11-20T13:18:38;8.10;99.90
14119;DHT22;7138;49.246;9.100;2022-11-20T13:21:14;8.10;99.90
14119;DHT22;7138;49.246;9.100;2022-11-20T13:23:41;8.40;99.90
14119;DHT22;7138;49.246;9.100;2022-11-20T13:26:16;8.50;99.90
14119;DHT22;7138;49.246;9.100;2022-11-20T13:28:46;8.70;99.90
14119;DHT22;7138;49.246;9.100;2022-11-20T13:31:30;8.80;99.90
14119;DHT22;7138;49.246;9.100;2022-11-20T13:34:00;8.90;99.90
14119;DHT22;7138;49.246;9.100;2022-11-20T13:36:29;9.10;99.90
14119;DHT22;7138;49.246;9.100;2022-11-20T13:38:56;9.20;99.90
14119;DHT22;7138;49.246;9.100;2022-11-20T13:41:27;9.40;99.90
14119;DHT22;7138;49.246;9.100;2022-11-20T13:43:59;9.20;99.90
14119;DHT22;7138;49.246;9.100;2022-11-20T13:46:37;8.90;99.90
14119;DHT22;7138;49.246;9.100;2022-11-20T13:49:10;8.60;99.90
14119;DHT22;7138;49.246;9.100;2022-11-20T13:51:45;8.50;99.90
14119;DHT22;7138;49.246;9.100;2022-11-20T13:54:44;8.50;99.90
14119;DHT22;7138;49.246;9.100;2022-11-20T13:57:47;8.40;99.90
14119;DHT22;7138;49.246;9.100;2022-11-20T14:00:28;8.30;99.90
14119;DHT22;7138;49.246;9.100;2022-11-20T14:03:09;8.30;99.90
14119;DHT22;7138;49.246;9.100;2022-11-20T14:05:50;8.30;99.90
14119;DHT22;7138;49.246;9.100;2022-11-20T14:08:25;8.20;99.90
14119;DHT22;7138;49.246;9.100;2022-11-20T14:11:04;8.10;99.90
14119;DHT22;7138;49.246;9.100;2022-11-20T14:13:37;8.00;99.90
14119;DHT22;7138;49.246;9.100;2022-11-20T14:16:03;8.00;99.90
14119;DHT22;7138;49.246;9.100;2022-11-20T14:18:29;7.90;99.90
14119;DHT22;7138;49.246;9.100;2022-11-20T14:21:00;8.10;99.90
14119;DHT22;7138;49.246;9.100;2022-11-20T14:23:28;8.30;99.90
14119;DHT22;7138;49.246;9.100;2022-11-20T14:25:55;8.40;99.90
14119;DHT22;7138;49.246;9.100;2022-11-20T14:28:25;8.50;99.90
14119;DHT22;7138;49.246;9.100;2022-11-20T14:30:53;8.50;99.90
14119;DHT22;7138;49.246;9.100;2022-11-20T14:33:19;8.30;99.90
14119;DHT22;7138;49.246;9.100;2022-11-20T14:35:51;8.20;99.90
14119;DHT22;7138;49.246;9.100;2022-11-20T14:38:24;8.20;99.90
14119;DHT22;7138;49.246;9.100;2022-11-20T14:40:52;8.20;99.90
14119;DHT22;7138;49.246;9.100;2022-11-20T14:43:21;8.10;99.90
14119;DHT22;7138;49.246;9.100;2022-11-20T14:45:55;8.10;99.90
14119;DHT22;7138;49.246;9.100;2022-11-20T14:48:29;7.90;99.90
14119;DHT22;7138;49.246;9.100;2022-11-20T14:50:57;7.80;99.90
14119;DHT22;7138;49.246;9.100;2022-11-20T14:53:24;7.80;99.90
14119;DHT22;7138;49.246;9.100;2022-11-20T14:55:56;7.70;99.90
14119;DHT22;7138;49.246;9.100;2022-11-20T14:58:26;7.60;99.90
14119;DHT22;7138;49.246;9.100;2022-11-20T15:00:54;7.50;99.90
14119;DHT22;7138;49.246;9.100;2022-11-20T15:03:21;7.60;99.90
14119;DHT22;7138;49.246;9.100;2022-11-20T15:05:49;7.50;99.90
14119;DHT22;7138;49.246;9.100;2022-11-20T15:08:16;7.40;99.90
14119;DHT22;7138;49.246;9.100;2022-11-20T15:10:47;7.30;99.90
14119;DHT22;7138;49.246;9.100;2022-11-20T15:13:17;7.20;99.90
14119;DHT22;7138;49.246;9.100;2022-11-20T15:15:50;7.10;99.90
14119;DHT22;7138;49.246;9.100;2022-11-20T15:18:19;7.00;99.90
14119;DHT22;7138;49.246;9.100;2022-11-20T15:20:48;7.00;99.90
14119;DHT22;7138;49.246;9.100;2022-11-20T15:23:19;6.90;99.90
14119;DHT22;7138;49.246;9.100;2022-11-20T15:25:47;6.90;99.90
14119;DHT22;7138;49.246;9.100;2022-11-20T15:28:17;6.80;99.90
14119;DHT22;7138;49.246;9.100;2022-11-20T15:30:46;6.80;99.90
14119;DHT22;7138;49.246;9.100;2022-11-20T15:33:13;6.80;99.90
14119;DHT22;7138;49.246;9.100;2022-11-20T15:35:40;6.70;99.90
14119;DHT22;7138;49.246;9.100;2022-11-20T15:38:06;6.70;99.90
14119;DHT22;7138;49.246;9.100;2022-11-20T15:40:32;6.60;99.90
14119;DHT22;7138;49.246;9.100;2022-11-20T15:43:00;6.60;99.90
14119;DHT22;7138;49.246;9.100;2022-11-20T15:45:30;6.60;99.90
14119;DHT22;7138;49.246;9.100;2022-11-20T15:48:00;6.60;99.90
14119;DHT22;7138;49.246;9.100;2022-11-20T15:50:31;6.50;99.90
14119;DHT22;7138;49.246;9.100;2022-11-20T15:53:01;6.40;99.90
14119;DHT22;7138;49.246;9.100;2022-11-20T15:55:27;6.40;99.90
14119;DHT22;7138;49.246;9.100;2022-11-20T15:57:53;6.40;99.90
14119;DHT22;7138;49.246;9.100;2022-11-20T16:00:20;6.40;99.90
14119;DHT22;7138;49.246;9.100;2022-11-20T16:02:46;6.40;99.90
14119;DHT22;7138;49.246;9.100;2022-11-20T16:05:13;6.30;99.90
14119;DHT22;7138;49.246;9.100;2022-11-20T16:07:40;6.30;99.90
14119;DHT22;7138;49.246;9.100;2022-11-20T16:10:07;6.40;99.90
14119;DHT22;7138;49.246;9.100;2022-11-20T16:12:33;6.40;99.90
14119;DHT22;7138;49.246;9.100;2022-11-20T16:15:19;6.40;99.90
14119;DHT22;7138;49.246;9.100;2022-11-20T16:18:04;6.40;99.90
14119;DHT22;7138;49.246;9.100;2022-11-20T16:20:30;6.40;99.90
14119;DHT22;7138;49.246;9.100;2022-11-20T16:22:56;6.40;99.90
14119;DHT22;7138;49.246;9.100;2022-11-20T16:25:22;6.30;99.90
14119;DHT22;7138;49.246;9.100;2022-11-20T16:27:47;6.40;99.90